createdAt,value
2018-12-12T00:00:48.888Z,95.12
2018-12-12T00:03:21.947Z,95.61
2018-12-12T00:05:58.458Z,95.31
2018-12-12T00:08:29.545Z,95.06
2018-12-12T00:11:02.735Z,95.53
2018-12-12T00:13:35.467Z,94.95
2018-12-12T00:16:08.535Z,94.98
2018-12-12T00:18:42.291Z,95.75
2018-12-12T00:21:19.858Z,95.98
2018-12-12T00:23:52.630Z,95.57
2018-12-12T00:26:25.574Z,95.66
2018-12-12T00:28:58.695Z,96.26
2018-12-12T00:31:31.833Z,96.17
2018-12-12T00:34:04.559Z,95.58
2018-12-12T00:36:37.850Z,96.03
2018-12-12T00:39:10.420Z,95.72
2018-12-12T00:41:47.491Z,95.74
2018-12-12T00:44:21.080Z,95.49
2018-12-12T00:46:53.730Z,95.37
2018-12-12T00:49:26.457Z,95.40
2018-12-12T00:51:59.716Z,95.76
2018-12-12T00:54:32.494Z,95.89
2018-12-12T00:57:05.733Z,95.74
2018-12-12T00:59:36.618Z,95.52
2018-12-12T01:02:09.246Z,96.01
2018-12-12T01:04:46.515Z,95.42
2018-12-12T01:07:19.943Z,95.74
2018-12-12T01:09:52.833Z,95.17
2018-12-12T01:12:25.686Z,95.16
2018-12-12T01:14:58.579Z,95.68
2018-12-12T01:17:35.898Z,95.38
2018-12-12T01:20:08.735Z,95.69
2018-12-12T01:22:41.892Z,95.32
2018-12-12T01:25:14.563Z,95.68
2018-12-12T01:27:48.583Z,95.64
2018-12-12T01:30:21.752Z,95.23
2018-12-12T01:32:56.820Z,95.17
2018-12-12T01:35:31.938Z,95.73
2018-12-12T01:38:04.663Z,95.41
2018-12-12T01:40:37.495Z,95.44
2018-12-12T01:43:14.448Z,95.61
2018-12-12T01:45:47.259Z,95.07
2018-12-12T01:48:18.225Z,95.29
2018-12-12T01:50:51.319Z,95.61
2018-12-12T01:53:24.467Z,95.64
2018-12-12T01:56:00.974Z,95.38
2018-12-12T01:58:31.775Z,95.16
2018-12-12T02:01:04.912Z,95.41
2018-12-12T02:03:38.548Z,95.87
2018-12-12T02:06:11.700Z,95.78
2018-12-12T02:08:42.651Z,95.46
2018-12-12T02:11:15.514Z,95.72
2018-12-12T02:13:48.478Z,95.30
2018-12-12T02:16:22.479Z,95.90
2018-12-12T02:18:55.099Z,95.56
2018-12-12T02:21:27.920Z,95.29
2018-12-12T02:24:00.815Z,94.87
2018-12-12T02:26:34.186Z,95.57
2018-12-12T02:29:06.459Z,95.78
2018-12-12T02:31:37.434Z,95.64
2018-12-12T02:34:13.737Z,95.18
2018-12-12T02:36:46.759Z,95.32
2018-12-12T02:59:27.060Z,95.18
2018-12-12T03:01:59.967Z,95.52
2018-12-12T03:04:36.674Z,95.24
2018-12-12T03:07:09.562Z,95.48
2018-12-12T03:09:42.512Z,95.72
2018-12-12T03:12:15.606Z,95.78
2018-12-12T03:14:52.525Z,95.71
2018-12-12T03:17:23.330Z,95.69
2018-12-12T03:19:56.313Z,95.12
2018-12-12T03:22:29.098Z,95.08
2018-12-12T03:25:02.187Z,95.07
2018-12-12T03:27:35.103Z,95.63
2018-12-12T03:30:08.269Z,95.46
2018-12-12T03:32:39.045Z,95.08
2018-12-12T03:35:11.834Z,95.08
2018-12-12T03:37:42.892Z,96.09
2018-12-12T03:40:15.130Z,95.54
2018-12-12T03:42:48.283Z,95.21
2018-12-12T03:45:21.234Z,95.80
2018-12-12T03:47:54.233Z,95.52
2018-12-12T03:50:27.390Z,95.64
2018-12-12T03:53:00.367Z,95.22
2018-12-12T03:55:33.523Z,95.74
2018-12-12T03:58:06.918Z,95.52
2018-12-12T04:20:46.446Z,95.01
2018-12-12T04:23:19.573Z,94.96
2018-12-12T04:25:56.318Z,95.15
2018-12-12T04:28:29.210Z,94.89
2018-12-12T04:30:59.933Z,94.92
2018-12-12T04:33:33.233Z,94.53
2018-12-12T04:36:06.091Z,94.65
2018-12-12T04:38:43.064Z,94.42
2018-12-12T04:41:16.186Z,94.70
2018-12-12T04:43:49.144Z,94.89
2018-12-12T04:46:25.832Z,94.77
2018-12-12T04:48:59.202Z,95.68
2018-12-12T04:51:31.752Z,95.44
2018-12-12T04:54:05.035Z,95.75
2018-12-12T04:56:41.979Z,95.33
2018-12-12T04:59:14.622Z,95.32
2018-12-12T05:01:47.291Z,95.46
2018-12-12T05:04:24.278Z,96.00
2018-12-12T05:06:57.399Z,95.15
2018-12-12T05:09:30.340Z,96.08
2018-12-12T05:12:03.380Z,95.95
2018-12-12T05:14:40.563Z,95.66
2018-12-12T05:17:12.938Z,95.25
2018-12-12T05:19:45.857Z,95.70
2018-12-12T05:22:18.763Z,96.16
2018-12-12T05:24:55.467Z,96.16
2018-12-12T05:27:28.435Z,96.33
2018-12-12T05:30:04.867Z,95.73
2018-12-12T05:32:37.695Z,95.73
2018-12-12T05:35:14.897Z,95.46
2018-12-12T05:37:51.825Z,96.23
2018-12-12T05:40:22.737Z,95.50
2018-12-12T05:42:55.131Z,95.70
2018-12-12T05:45:28.344Z,95.21
2018-12-12T05:48:01.530Z,95.52
2018-12-12T05:50:34.595Z,95.62
2018-12-12T05:53:05.815Z,96.22
2018-12-12T05:55:38.699Z,96.21
2018-12-12T05:58:09.670Z,95.72
2018-12-12T06:00:42.671Z,96.36
2018-12-12T06:03:15.676Z,96.49
2018-12-12T06:05:48.227Z,96.24
2018-12-12T06:08:21.405Z,96.07
2018-12-12T06:10:52.218Z,96.48
2018-12-12T06:13:25.424Z,96.52
2018-12-12T06:15:58.396Z,96.04
2018-12-12T06:18:30.732Z,95.92
2018-12-12T06:21:03.853Z,95.97
2018-12-12T06:23:36.651Z,95.87
2018-12-12T06:33:38.167Z,96.38
2018-12-12T06:38:42.224Z,96.24
2018-12-12T06:41:11.371Z,95.85
2018-12-12T06:43:44.062Z,95.81
2018-12-12T06:46:30.139Z,96.39
2018-12-12T06:49:02.876Z,95.87
2018-12-12T06:51:35.879Z,95.87
2018-12-12T06:54:06.979Z,96.29
2018-12-12T06:56:44.002Z,95.87
2018-12-12T06:59:17.196Z,95.83
2018-12-12T07:01:55.191Z,95.83
2018-12-12T07:04:24.251Z,95.77
2018-12-12T07:06:57.982Z,95.90
2018-12-12T07:09:40.421Z,95.81
2018-12-12T07:12:09.562Z,95.83
2018-12-12T07:14:46.491Z,96.22
2018-12-12T07:17:24.066Z,95.92
2018-12-12T07:19:53.344Z,96.09
2018-12-12T07:22:22.559Z,96.10
2018-12-12T07:24:51.692Z,96.19
2018-12-12T07:27:26.064Z,95.65
2018-12-12T07:29:55.236Z,95.76
2018-12-12T07:33:07.445Z,95.79
2018-12-12T07:35:36.659Z,95.87
2018-12-12T07:38:05.978Z,95.95
2018-12-12T07:43:07.436Z,96.04
2018-12-12T07:45:36.552Z,95.95
2018-12-12T07:48:20.327Z,95.70
2018-12-12T07:50:52.878Z,96.10
2018-12-12T07:53:21.894Z,95.93
2018-12-12T07:55:50.907Z,95.64
2018-12-12T07:58:20.073Z,95.65
2018-12-12T08:00:57.663Z,96.06
2018-12-12T08:03:26.670Z,96.02
2018-12-12T08:06:04.406Z,95.40
2018-12-12T08:08:33.436Z,95.65
2018-12-12T08:11:02.710Z,95.30
2018-12-12T08:13:31.787Z,95.42
2018-12-12T08:16:04.248Z,95.02
2018-12-12T08:18:33.363Z,95.08
2018-12-12T08:21:02.585Z,95.10
2018-12-12T08:23:31.947Z,95.00
2018-12-12T08:26:01.079Z,95.53
2018-12-12T08:28:30.162Z,95.05
2018-12-12T08:30:59.258Z,95.45
2018-12-12T08:33:28.432Z,95.31
2018-12-12T08:35:57.453Z,95.22
2018-12-12T08:38:26.598Z,95.40
2018-12-12T08:40:55.731Z,94.46
2018-12-12T08:43:24.852Z,94.74
2018-12-12T08:45:53.910Z,94.65
2018-12-12T08:48:23.068Z,94.75
2018-12-12T08:50:52.154Z,95.53
2018-12-12T08:53:21.270Z,95.03
2018-12-12T08:55:50.433Z,95.39
2018-12-12T08:58:19.572Z,94.81
2018-12-12T09:00:48.787Z,94.51
2018-12-12T09:03:17.966Z,94.77
2018-12-12T09:05:47.088Z,95.00
2018-12-12T09:08:16.162Z,94.01
2018-12-12T09:10:45.284Z,94.60
2018-12-12T09:13:15.430Z,94.32
2018-12-12T09:15:44.719Z,94.46
2018-12-12T09:18:13.771Z,94.16
2018-12-12T09:20:42.935Z,94.61
2018-12-12T09:23:12.063Z,94.24
2018-12-12T09:25:41.635Z,94.17
2018-12-12T09:28:10.853Z,93.38
2018-12-12T09:30:40.035Z,93.58
2018-12-12T09:33:09.168Z,93.29
2018-12-12T09:35:38.395Z,93.06
2018-12-12T09:38:07.634Z,93.92
2018-12-12T09:40:37.069Z,92.91
2018-12-12T09:43:06.203Z,93.47
2018-12-12T09:45:35.358Z,92.92
2018-12-12T09:48:04.567Z,92.37
2018-12-12T09:50:33.674Z,92.17
2018-12-12T09:53:02.863Z,91.53
2018-12-12T09:55:32.075Z,91.84
2018-12-12T09:58:01.878Z,90.76
2018-12-12T10:00:30.965Z,90.96
2018-12-12T10:03:00.101Z,90.84
2018-12-12T10:05:29.183Z,90.03
2018-12-12T10:07:58.322Z,90.94
2018-12-12T10:10:27.429Z,90.42
2018-12-12T10:12:56.502Z,90.49
2018-12-12T10:15:25.763Z,90.85
2018-12-12T10:17:54.911Z,90.13
2018-12-12T10:20:24.143Z,89.62
2018-12-12T10:22:53.214Z,89.33
2018-12-12T10:25:22.263Z,89.48
2018-12-12T10:27:51.280Z,90.28
2018-12-12T10:30:20.373Z,89.86
2018-12-12T10:32:49.399Z,88.97
2018-12-12T10:35:18.519Z,88.66
2018-12-12T10:37:47.576Z,89.27
2018-12-12T10:40:16.662Z,88.72
2018-12-12T10:42:45.656Z,89.06
2018-12-12T10:45:14.735Z,88.78
2018-12-12T10:47:43.763Z,88.05
2018-12-12T10:50:12.883Z,85.75
2018-12-12T10:52:45.145Z,86.17
2018-12-12T10:55:14.238Z,86.31
2018-12-12T10:57:43.297Z,85.69
2018-12-12T11:00:13.054Z,86.27
2018-12-12T11:02:47.575Z,85.81
2018-12-12T11:05:17.003Z,85.61
2018-12-12T11:07:46.096Z,86.18
2018-12-12T11:10:15.235Z,86.21
2018-12-12T11:12:51.844Z,86.29
2018-12-12T11:15:20.963Z,86.52
2018-12-12T11:17:49.983Z,86.47
2018-12-12T11:20:19.035Z,86.82
2018-12-12T11:22:48.135Z,86.09
2018-12-12T11:25:17.175Z,86.33
2018-12-12T11:27:46.325Z,86.77
2018-12-12T11:30:15.387Z,86.66
2018-12-12T11:32:44.550Z,86.73
2018-12-12T11:35:13.835Z,86.84
2018-12-12T11:37:42.940Z,85.50
2018-12-12T11:40:12.014Z,86.49
2018-12-12T11:42:42.167Z,86.13
2018-12-12T11:45:11.235Z,86.05
2018-12-12T11:47:40.375Z,86.36
2018-12-12T11:50:09.480Z,85.82
2018-12-12T11:52:38.615Z,85.96
2018-12-12T11:55:07.675Z,85.69
2018-12-12T11:57:36.915Z,86.31
2018-12-12T12:00:06.375Z,86.10
2018-12-12T12:02:35.805Z,86.51
2018-12-12T12:05:05.153Z,85.82
2018-12-12T12:07:37.370Z,85.71
2018-12-12T12:10:09.024Z,86.36
2018-12-12T12:12:45.863Z,85.56
2018-12-12T12:15:14.963Z,85.00
2018-12-12T12:17:44.030Z,84.09
2018-12-12T12:20:13.125Z,84.47
2018-12-12T12:22:42.331Z,84.55
2018-12-12T12:25:11.384Z,82.96
2018-12-12T12:27:40.483Z,83.11
2018-12-12T12:30:09.872Z,81.40
2018-12-12T12:33:22.597Z,81.81
2018-12-12T12:35:51.695Z,81.98
2018-12-12T12:38:20.805Z,82.35
2018-12-12T12:40:49.837Z,81.99
2018-12-12T12:43:19.035Z,81.60
2018-12-12T12:45:48.226Z,81.08
2018-12-12T12:48:17.779Z,80.59
2018-12-12T12:50:46.795Z,80.71
2018-12-12T12:53:16.019Z,80.70
2018-12-12T12:55:58.498Z,81.46
2018-12-12T12:58:40.195Z,81.60
2018-12-12T13:01:16.907Z,82.13
2018-12-12T13:03:49.964Z,81.15
2018-12-12T13:06:19.177Z,80.63
2018-12-12T13:08:51.936Z,81.14
2018-12-12T13:11:20.976Z,81.44
2018-12-12T13:13:50.292Z,82.42
2018-12-12T13:16:19.303Z,82.79
2018-12-12T13:18:48.399Z,82.44
2018-12-12T13:21:17.535Z,82.75
2018-12-12T13:23:50.095Z,82.92
2018-12-12T13:26:22.676Z,82.88
2018-12-12T13:28:55.595Z,83.12
2018-12-12T13:31:32.258Z,83.29
2018-12-12T13:34:01.664Z,83.44
2018-12-12T13:36:30.720Z,83.38
2018-12-12T13:39:24.002Z,83.08
2018-12-12T13:41:53.179Z,83.00
2018-12-12T13:44:22.227Z,82.89
2018-12-12T13:46:51.227Z,83.05
2018-12-12T13:49:20.403Z,83.49
2018-12-12T13:51:58.819Z,83.95
2018-12-12T13:54:39.067Z,83.30
2018-12-12T13:57:08.106Z,83.77
2018-12-12T13:59:48.303Z,84.27
2018-12-12T14:02:17.331Z,86.65
2018-12-12T14:04:53.699Z,89.53
2018-12-12T14:07:22.673Z,89.63
2018-12-12T14:09:51.654Z,87.38
2018-12-12T14:12:20.588Z,84.68
2018-12-12T14:14:50.741Z,81.62
2018-12-12T14:17:19.899Z,79.15
2018-12-12T14:19:48.978Z,76.80
2018-12-12T14:22:18.019Z,74.77
2018-12-12T14:24:47.179Z,72.83
2018-12-12T14:27:16.187Z,72.15
2018-12-12T14:29:45.201Z,71.87
2018-12-12T14:32:14.751Z,70.39
2018-12-12T14:34:43.803Z,69.64
2018-12-12T14:37:12.923Z,69.55
2018-12-12T14:39:41.891Z,69.48
2018-12-12T14:42:10.899Z,69.98
2018-12-12T14:44:39.899Z,71.84
2018-12-12T14:47:09.203Z,72.06
2018-12-12T14:49:38.240Z,73.02
2018-12-12T14:52:07.339Z,72.81
2018-12-12T14:54:36.398Z,73.34
2018-12-12T14:57:05.507Z,73.56
2018-12-12T14:59:34.549Z,74.44
2018-12-12T15:02:03.647Z,74.71
2018-12-12T15:04:35.864Z,76.00
2018-12-12T15:07:04.256Z,75.96
2018-12-12T15:09:53.883Z,75.76
2018-12-12T15:12:26.789Z,76.69
2018-12-12T15:15:03.387Z,76.69
2018-12-12T15:17:32.509Z,77.97
2018-12-12T15:20:01.567Z,78.17
2018-12-12T15:22:30.780Z,79.15
2018-12-12T15:25:10.051Z,78.93
2018-12-12T15:27:46.732Z,79.85
2018-12-12T15:30:20.615Z,79.29
2018-12-12T15:32:53.651Z,79.83
2018-12-12T15:35:35.774Z,80.15
2018-12-12T15:38:08.075Z,81.04
2018-12-12T15:40:37.175Z,81.15
2018-12-12T15:43:06.216Z,81.33
2018-12-12T15:45:42.735Z,80.96
2018-12-12T15:48:52.161Z,82.26
2018-12-12T15:51:49.660Z,82.51
2018-12-12T15:54:46.471Z,83.01
2018-12-12T15:57:19.615Z,83.04
2018-12-12T15:59:48.719Z,83.29
2018-12-12T16:02:21.163Z,84.33
2018-12-12T16:04:51.307Z,84.48
2018-12-12T16:07:21.379Z,84.76
2018-12-12T16:10:03.803Z,84.77
2018-12-12T16:12:33.232Z,85.24
2018-12-12T16:15:02.258Z,85.03
2018-12-12T16:17:31.434Z,85.71
2018-12-12T16:20:00.778Z,85.30
2018-12-12T16:22:31.390Z,85.59
2018-12-12T16:25:00.570Z,85.52
2018-12-12T16:27:29.733Z,85.62
2018-12-12T16:29:58.766Z,86.22
2018-12-12T16:32:27.871Z,86.12
2018-12-12T16:34:57.011Z,86.32
2018-12-12T16:37:26.051Z,86.32
2018-12-12T16:39:55.212Z,86.87
2018-12-12T16:42:24.317Z,86.93
2018-12-12T16:44:53.656Z,86.71
2018-12-12T16:47:23.202Z,87.00
2018-12-12T16:49:52.654Z,87.52
2018-12-12T16:52:21.927Z,87.52
2018-12-12T16:54:55.007Z,87.67
2018-12-12T16:57:34.639Z,87.58
2018-12-12T17:00:04.932Z,87.68
2018-12-12T17:02:34.293Z,88.27
2018-12-12T17:05:03.433Z,87.87
2018-12-12T17:07:32.675Z,88.31
2018-12-12T17:10:01.902Z,88.06
2018-12-12T17:12:31.108Z,88.62
2018-12-12T17:15:03.879Z,88.33
2018-12-12T17:17:33.188Z,88.16
2018-12-12T17:20:02.735Z,88.29
2018-12-12T17:22:32.019Z,88.40
2018-12-12T17:25:01.206Z,88.21
2018-12-12T17:27:38.430Z,88.28
2018-12-12T17:30:09.175Z,87.65
2018-12-12T17:32:38.546Z,88.15
2018-12-12T17:35:15.441Z,88.00
2018-12-12T17:38:05.351Z,87.73
2018-12-12T17:40:42.826Z,87.71
2018-12-12T17:43:12.323Z,88.71
2018-12-12T17:45:58.243Z,88.98
2018-12-12T17:48:34.905Z,88.25
2018-12-12T17:51:07.566Z,88.45
2018-12-12T17:53:45.566Z,88.99
2018-12-12T17:56:22.553Z,89.01
2018-12-12T17:58:52.079Z,88.51
2018-12-12T18:01:25.069Z,88.65
2018-12-12T18:04:02.067Z,88.76
2018-12-12T18:06:48.071Z,89.82
2018-12-12T18:09:21.490Z,89.70
2018-12-12T18:11:58.540Z,90.12
2018-12-12T18:14:36.130Z,89.20
2018-12-12T18:17:09.083Z,89.23
2018-12-12T18:19:42.369Z,89.56
2018-12-12T18:22:19.498Z,89.68
2018-12-12T18:24:52.910Z,90.66
2018-12-12T18:27:40.032Z,90.26
2018-12-12T18:30:11.533Z,89.94
2018-12-12T18:32:48.519Z,90.02
2018-12-12T18:35:29.731Z,90.17
2018-12-12T18:38:07.011Z,90.84
2018-12-12T18:40:44.586Z,91.04
2018-12-12T18:43:22.000Z,91.37
2018-12-12T18:45:55.528Z,91.21
2018-12-12T18:48:26.559Z,91.35
2018-12-12T18:51:03.459Z,90.84
2018-12-12T18:53:36.407Z,91.12
2018-12-12T18:56:09.073Z,91.07
2018-12-12T18:58:46.071Z,91.15
2018-12-12T19:01:20.538Z,91.57
2018-12-12T19:04:12.174Z,91.93
2018-12-12T19:06:44.934Z,91.83
2018-12-12T19:09:22.658Z,92.08
2018-12-12T19:11:56.098Z,91.72
2018-12-12T19:14:28.833Z,92.17
2018-12-12T19:17:02.448Z,91.50
2018-12-12T19:19:35.343Z,91.68
2018-12-12T19:22:12.102Z,92.20
2018-12-12T19:24:44.993Z,92.24
2018-12-12T19:27:18.352Z,92.49
2018-12-12T19:29:55.434Z,92.40
2018-12-12T19:32:33.331Z,92.14
2018-12-12T19:35:07.475Z,92.24
2018-12-12T19:37:40.648Z,92.67
2018-12-12T19:40:14.093Z,93.00
2018-12-12T19:42:47.054Z,92.33
2018-12-12T19:45:23.891Z,92.41
2018-12-12T19:47:56.631Z,92.57
2018-12-12T19:50:29.570Z,92.75
2018-12-12T19:53:06.593Z,92.98
2018-12-12T19:55:39.466Z,92.64
2018-12-12T19:58:16.212Z,92.79
2018-12-12T20:00:49.099Z,92.70
2018-12-12T20:03:27.617Z,93.54
2018-12-12T20:06:14.366Z,93.37
2018-12-12T20:08:45.918Z,93.54
2018-12-12T20:11:15.470Z,93.19
2018-12-12T20:13:48.399Z,93.21
2018-12-12T20:16:48.223Z,93.24
2018-12-12T20:19:19.831Z,93.71
2018-12-12T20:22:17.080Z,93.85
2018-12-12T20:25:27.574Z,94.10
2018-12-12T20:28:46.416Z,94.26
2018-12-12T20:34:42.589Z,94.46
2018-12-12T20:37:12.165Z,94.40
2018-12-12T20:39:56.639Z,94.15
2018-12-12T20:42:26.284Z,94.40
2018-12-12T20:49:01.912Z,94.08
2018-12-12T20:51:36.412Z,94.83
2018-12-12T20:54:13.390Z,94.75
2018-12-12T20:56:46.243Z,94.18
2018-12-12T20:59:16.503Z,94.37
2018-12-12T21:01:53.829Z,94.57
2018-12-12T21:04:26.649Z,94.64
2018-12-12T21:06:59.635Z,94.48
2018-12-12T21:09:41.656Z,94.78
2018-12-12T21:12:19.160Z,94.78
2018-12-12T21:14:52.016Z,96.17
2018-12-12T21:17:22.035Z,95.49
2018-12-12T21:19:59.624Z,95.46
2018-12-12T21:22:32.407Z,94.96
2018-12-12T21:25:09.110Z,95.14
2018-12-12T21:27:46.939Z,95.09
2018-12-12T21:30:23.743Z,95.63
2018-12-12T21:32:57.315Z,95.66
2018-12-12T21:35:35.684Z,96.19
2018-12-12T21:38:12.933Z,95.57
2018-12-12T21:40:42.411Z,96.13
2018-12-12T21:43:19.455Z,96.73
2018-12-12T21:45:52.538Z,96.91
2018-12-12T21:48:25.212Z,96.73
2018-12-12T21:51:02.138Z,97.50
2018-12-12T21:53:38.975Z,97.52
2018-12-12T21:56:12.039Z,97.37
2018-12-12T21:58:53.855Z,96.55
2018-12-12T22:01:30.882Z,96.96
2018-12-12T22:04:07.667Z,96.66
2018-12-12T22:06:40.486Z,96.45
2018-12-12T22:12:41.507Z,97.36
2018-12-12T22:15:14.145Z,97.92
2018-12-12T22:17:45.118Z,97.49
2018-12-12T22:20:14.442Z,97.52
2018-12-12T22:22:58.486Z,96.78
2018-12-12T22:26:06.164Z,97.49
2018-12-12T22:28:35.325Z,97.59
2018-12-12T22:31:04.339Z,97.21
2018-12-12T22:33:33.495Z,97.51
2018-12-12T22:36:02.575Z,97.71
2018-12-12T22:38:40.804Z,97.82
2018-12-12T22:41:10.191Z,98.01
2018-12-12T22:43:39.633Z,97.80
2018-12-12T22:46:08.591Z,97.75
2018-12-12T22:48:45.497Z,97.40
2018-12-12T22:51:23.347Z,97.76
2018-12-12T22:56:21.722Z,97.02
2018-12-12T22:58:50.733Z,97.57
2018-12-12T23:01:27.271Z,97.21
2018-12-12T23:03:58.087Z,97.94
2018-12-12T23:06:29.003Z,97.91
2018-12-12T23:08:58.060Z,97.99
2018-12-12T23:11:27.015Z,97.03
2018-12-12T23:13:56.302Z,97.18
2018-12-12T23:16:28.702Z,97.12
2018-12-12T23:19:01.466Z,97.46
2018-12-12T23:22:11.586Z,97.18
2018-12-12T23:24:43.777Z,96.86
2018-12-12T23:27:13.347Z,97.73
2018-12-12T23:30:25.583Z,97.73
2018-12-12T23:33:01.951Z,96.90
2018-12-12T23:35:30.929Z,96.98
2018-12-12T23:37:59.954Z,97.67
2018-12-12T23:40:30.722Z,97.73
2018-12-12T23:43:03.874Z,98.34
2018-12-12T23:45:34.515Z,98.02
2018-12-12T23:48:03.535Z,98.03
2018-12-12T23:50:32.663Z,98.10
2018-12-12T23:53:05.643Z,98.87
2018-12-12T23:55:38.410Z,98.79
2018-12-12T23:58:10.993Z,98.04
